sensor_id;sensor_type;location;lat;lon;timestamp;P1;durP1;ratioP1;P2;durP2;ratioP2
31782;SDS011;18351;47.560;9.708;2023-05-25T00:00:41;27.30;;;15.05;;
31782;SDS011;18351;47.560;9.708;2023-05-25T00:03:06;29.77;;;15.77;;
31782;SDS011;18351;47.560;9.708;2023-05-25T00:05:33;28.20;;;15.35;;
31782;SDS011;18351;47.560;9.708;2023-05-25T00:07:59;28.58;;;15.52;;
31782;SDS011;18351;47.560;9.708;2023-05-25T00:10:25;37.22;;;15.88;;
31782;SDS011;18351;47.560;9.708;2023-05-25T00:12:50;28.58;;;16.00;;
31782;SDS011;18351;47.560;9.708;2023-05-25T00:15:16;26.13;;;15.52;;
31782;SDS011;18351;47.560;9.708;2023-05-25T00:17:41;30.95;;;16.98;;
31782;SDS011;18351;47.560;9.708;2023-05-25T00:20:07;35.65;;;16.60;;
31782;SDS011;18351;47.560;9.708;2023-05-25T00:22:34;30.63;;;16.90;;
31782;SDS011;18351;47.560;9.708;2023-05-25T00:25:03;29.70;;;16.27;;
31782;SDS011;18351;47.560;9.708;2023-05-25T00:27:30;25.70;;;15.77;;
31782;SDS011;18351;47.560;9.708;2023-05-25T00:29:56;31.17;;;16.75;;
31782;SDS011;18351;47.560;9.708;2023-05-25T00:32:22;30.27;;;15.27;;
31782;SDS011;18351;47.560;9.708;2023-05-25T00:34:47;29.27;;;15.93;;
31782;SDS011;18351;47.560;9.708;2023-05-25T00:37:13;29.48;;;14.82;;
31782;SDS011;18351;47.560;9.708;2023-05-25T00:39:39;34.35;;;15.88;;
31782;SDS011;18351;47.560;9.708;2023-05-25T00:42:04;34.83;;;15.52;;
31782;SDS011;18351;47.560;9.708;2023-05-25T00:44:31;28.52;;;17.45;;
31782;SDS011;18351;47.560;9.708;2023-05-25T00:46:57;34.08;;;15.93;;
31782;SDS011;18351;47.560;9.708;2023-05-25T00:49:23;28.48;;;16.05;;
31782;SDS011;18351;47.560;9.708;2023-05-25T00:51:50;26.38;;;15.45;;
31782;SDS011;18351;47.560;9.708;2023-05-25T00:54:16;29.50;;;16.67;;
31782;SDS011;18351;47.560;9.708;2023-05-25T00:56:45;34.70;;;15.88;;
31782;SDS011;18351;47.560;9.708;2023-05-25T00:59:16;33.58;;;15.73;;
31782;SDS011;18351;47.560;9.708;2023-05-25T01:01:55;28.05;;;15.57;;
31782;SDS011;18351;47.560;9.708;2023-05-25T01:04:23;31.95;;;15.00;;
31782;SDS011;18351;47.560;9.708;2023-05-25T01:06:52;29.98;;;15.73;;
31782;SDS011;18351;47.560;9.708;2023-05-25T01:09:21;30.70;;;16.20;;
31782;SDS011;18351;47.560;9.708;2023-05-25T01:11:50;30.75;;;15.50;;
31782;SDS011;18351;47.560;9.708;2023-05-25T01:14:18;26.98;;;15.43;;
31782;SDS011;18351;47.560;9.708;2023-05-25T01:16:48;28.45;;;15.15;;
31782;SDS011;18351;47.560;9.708;2023-05-25T01:19:15;29.38;;;14.98;;
31782;SDS011;18351;47.560;9.708;2023-05-25T01:21:47;31.38;;;15.07;;
31782;SDS011;18351;47.560;9.708;2023-05-25T01:29:46;28.23;;;14.32;;
31782;SDS011;18351;47.560;9.708;2023-05-25T01:32:13;31.55;;;14.80;;
31782;SDS011;18351;47.560;9.708;2023-05-25T01:34:39;24.27;;;13.20;;
31782;SDS011;18351;47.560;9.708;2023-05-25T01:37:07;28.02;;;13.50;;
31782;SDS011;18351;47.560;9.708;2023-05-25T01:39:32;24.13;;;13.95;;
31782;SDS011;18351;47.560;9.708;2023-05-25T01:41:58;29.27;;;14.10;;
31782;SDS011;18351;47.560;9.708;2023-05-25T01:44:25;26.65;;;13.40;;
31782;SDS011;18351;47.560;9.708;2023-05-25T01:47:00;32.65;;;14.30;;
31782;SDS011;18351;47.560;9.708;2023-05-25T01:49:31;25.85;;;14.30;;
31782;SDS011;18351;47.560;9.708;2023-05-25T01:54:37;26.75;;;14.07;;
31782;SDS011;18351;47.560;9.708;2023-05-25T01:57:07;24.67;;;13.45;;
31782;SDS011;18351;47.560;9.708;2023-05-25T01:59:37;31.67;;;14.60;;
31782;SDS011;18351;47.560;9.708;2023-05-25T02:02:04;25.98;;;14.13;;
31782;SDS011;18351;47.560;9.708;2023-05-25T02:04:31;27.25;;;13.98;;
31782;SDS011;18351;47.560;9.708;2023-05-25T02:06:57;26.88;;;14.30;;
31782;SDS011;18351;47.560;9.708;2023-05-25T02:09:23;24.92;;;14.55;;
31782;SDS011;18351;47.560;9.708;2023-05-25T02:11:48;28.40;;;14.85;;
31782;SDS011;18351;47.560;9.708;2023-05-25T02:14:14;25.20;;;14.15;;
31782;SDS011;18351;47.560;9.708;2023-05-25T02:16:40;26.42;;;15.13;;
31782;SDS011;18351;47.560;9.708;2023-05-25T02:19:06;23.58;;;14.73;;
31782;SDS011;18351;47.560;9.708;2023-05-25T02:21:32;24.67;;;14.85;;
31782;SDS011;18351;47.560;9.708;2023-05-25T02:24:00;27.70;;;14.60;;
31782;SDS011;18351;47.560;9.708;2023-05-25T02:26:26;27.77;;;14.55;;
31782;SDS011;18351;47.560;9.708;2023-05-25T02:28:51;28.30;;;14.18;;
31782;SDS011;18351;47.560;9.708;2023-05-25T02:31:17;26.77;;;13.85;;
31782;SDS011;18351;47.560;9.708;2023-05-25T02:33:42;26.77;;;14.38;;
31782;SDS011;18351;47.560;9.708;2023-05-25T02:36:08;31.73;;;15.00;;
31782;SDS011;18351;47.560;9.708;2023-05-25T02:38:33;33.97;;;14.95;;
31782;SDS011;18351;47.560;9.708;2023-05-25T02:40:59;26.95;;;14.68;;
31782;SDS011;18351;47.560;9.708;2023-05-25T02:43:24;25.67;;;15.38;;
31782;SDS011;18351;47.560;9.708;2023-05-25T02:45:50;26.40;;;15.52;;
31782;SDS011;18351;47.560;9.708;2023-05-25T02:48:15;25.35;;;14.65;;
31782;SDS011;18351;47.560;9.708;2023-05-25T02:50:41;28.60;;;16.52;;
31782;SDS011;18351;47.560;9.708;2023-05-25T02:53:07;23.95;;;14.45;;
31782;SDS011;18351;47.560;9.708;2023-05-25T02:55:32;23.83;;;13.82;;
31782;SDS011;18351;47.560;9.708;2023-05-25T02:57:58;27.67;;;14.13;;
31782;SDS011;18351;47.560;9.708;2023-05-25T03:00:24;29.35;;;15.23;;
31782;SDS011;18351;47.560;9.708;2023-05-25T03:02:50;28.25;;;15.10;;
31782;SDS011;18351;47.560;9.708;2023-05-25T03:05:16;24.92;;;14.40;;
31782;SDS011;18351;47.560;9.708;2023-05-25T03:07:41;23.42;;;13.80;;
31782;SDS011;18351;47.560;9.708;2023-05-25T03:10:07;22.60;;;14.45;;
31782;SDS011;18351;47.560;9.708;2023-05-25T03:12:34;28.23;;;15.32;;
31782;SDS011;18351;47.560;9.708;2023-05-25T03:14:59;26.17;;;14.43;;
31782;SDS011;18351;47.560;9.708;2023-05-25T03:17:25;27.75;;;14.50;;
31782;SDS011;18351;47.560;9.708;2023-05-25T03:19:50;28.88;;;17.00;;
31782;SDS011;18351;47.560;9.708;2023-05-25T03:22:17;23.02;;;14.15;;
31782;SDS011;18351;47.560;9.708;2023-05-25T03:24:42;19.45;;;13.55;;
31782;SDS011;18351;47.560;9.708;2023-05-25T03:27:08;21.52;;;14.07;;
31782;SDS011;18351;47.560;9.708;2023-05-25T03:29:33;21.08;;;14.60;;
31782;SDS011;18351;47.560;9.708;2023-05-25T03:31:59;23.67;;;15.90;;
31782;SDS011;18351;47.560;9.708;2023-05-25T03:34:24;23.85;;;14.93;;
31782;SDS011;18351;47.560;9.708;2023-05-25T03:36:51;25.67;;;13.90;;
31782;SDS011;18351;47.560;9.708;2023-05-25T03:39:18;22.73;;;13.65;;
31782;SDS011;18351;47.560;9.708;2023-05-25T03:41:46;26.35;;;15.30;;
31782;SDS011;18351;47.560;9.708;2023-05-25T03:44:12;25.10;;;14.82;;
31782;SDS011;18351;47.560;9.708;2023-05-25T03:46:37;26.17;;;14.43;;
31782;SDS011;18351;47.560;9.708;2023-05-25T03:49:03;19.95;;;14.43;;
31782;SDS011;18351;47.560;9.708;2023-05-25T03:51:29;23.77;;;14.50;;
31782;SDS011;18351;47.560;9.708;2023-05-25T03:53:55;22.80;;;14.15;;
31782;SDS011;18351;47.560;9.708;2023-05-25T03:56:20;27.70;;;15.35;;
31782;SDS011;18351;47.560;9.708;2023-05-25T03:58:46;22.63;;;14.13;;
31782;SDS011;18351;47.560;9.708;2023-05-25T04:01:12;24.75;;;15.00;;
31782;SDS011;18351;47.560;9.708;2023-05-25T04:03:38;21.90;;;13.75;;
31782;SDS011;18351;47.560;9.708;2023-05-25T04:06:04;23.27;;;12.90;;
31782;SDS011;18351;47.560;9.708;2023-05-25T04:08:30;21.65;;;13.55;;
31782;SDS011;18351;47.560;9.708;2023-05-25T04:10:55;23.67;;;14.68;;
31782;SDS011;18351;47.560;9.708;2023-05-25T04:13:21;21.50;;;13.55;;
31782;SDS011;18351;47.560;9.708;2023-05-25T04:15:47;23.23;;;14.07;;
31782;SDS011;18351;47.560;9.708;2023-05-25T04:18:13;23.02;;;13.85;;
31782;SDS011;18351;47.560;9.708;2023-05-25T04:20:39;22.10;;;13.25;;
31782;SDS011;18351;47.560;9.708;2023-05-25T04:23:05;26.13;;;13.90;;
31782;SDS011;18351;47.560;9.708;2023-05-25T04:25:30;21.70;;;12.75;;
31782;SDS011;18351;47.560;9.708;2023-05-25T04:27:56;18.55;;;12.30;;
31782;SDS011;18351;47.560;9.708;2023-05-25T04:30:21;21.75;;;13.50;;
31782;SDS011;18351;47.560;9.708;2023-05-25T04:32:47;20.92;;;12.40;;
31782;SDS011;18351;47.560;9.708;2023-05-25T04:35:13;21.80;;;13.30;;
31782;SDS011;18351;47.560;9.708;2023-05-25T04:37:39;20.00;;;13.25;;
31782;SDS011;18351;47.560;9.708;2023-05-25T04:40:06;18.42;;;12.45;;
31782;SDS011;18351;47.560;9.708;2023-05-25T04:42:35;17.73;;;12.00;;
31782;SDS011;18351;47.560;9.708;2023-05-25T04:45:06;20.67;;;13.10;;
31782;SDS011;18351;47.560;9.708;2023-05-25T04:47:35;21.52;;;13.13;;
31782;SDS011;18351;47.560;9.708;2023-05-25T04:50:04;18.10;;;12.05;;
31782;SDS011;18351;47.560;9.708;2023-05-25T04:52:32;20.20;;;13.43;;
31782;SDS011;18351;47.560;9.708;2023-05-25T04:54:57;19.25;;;12.90;;
31782;SDS011;18351;47.560;9.708;2023-05-25T04:57:23;27.40;;;13.43;;
31782;SDS011;18351;47.560;9.708;2023-05-25T04:59:51;21.83;;;13.15;;
31782;SDS011;18351;47.560;9.708;2023-05-25T05:02:17;23.83;;;13.10;;
31782;SDS011;18351;47.560;9.708;2023-05-25T05:04:42;19.00;;;12.63;;
31782;SDS011;18351;47.560;9.708;2023-05-25T05:07:08;18.75;;;12.50;;
31782;SDS011;18351;47.560;9.708;2023-05-25T05:09:34;20.60;;;13.57;;
31782;SDS011;18351;47.560;9.708;2023-05-25T05:11:59;20.77;;;12.48;;
31782;SDS011;18351;47.560;9.708;2023-05-25T05:14:25;22.23;;;12.40;;
31782;SDS011;18351;47.560;9.708;2023-05-25T05:16:51;17.95;;;11.45;;
31782;SDS011;18351;47.560;9.708;2023-05-25T05:19:17;22.33;;;13.15;;
31782;SDS011;18351;47.560;9.708;2023-05-25T05:21:42;19.17;;;13.00;;
31782;SDS011;18351;47.560;9.708;2023-05-25T05:24:08;20.60;;;13.75;;
31782;SDS011;18351;47.560;9.708;2023-05-25T05:26:33;25.08;;;13.57;;
31782;SDS011;18351;47.560;9.708;2023-05-25T05:28:59;20.85;;;13.02;;
31782;SDS011;18351;47.560;9.708;2023-05-25T05:31:24;23.75;;;13.20;;
31782;SDS011;18351;47.560;9.708;2023-05-25T05:33:51;21.20;;;13.82;;
31782;SDS011;18351;47.560;9.708;2023-05-25T05:36:17;19.48;;;13.25;;
31782;SDS011;18351;47.560;9.708;2023-05-25T05:38:42;20.88;;;13.98;;
31782;SDS011;18351;47.560;9.708;2023-05-25T05:41:10;22.08;;;13.82;;
31782;SDS011;18351;47.560;9.708;2023-05-25T05:43:40;15.45;;;10.77;;
31782;SDS011;18351;47.560;9.708;2023-05-25T05:46:08;19.13;;;10.02;;
31782;SDS011;18351;47.560;9.708;2023-05-25T05:48:34;14.50;;;9.23;;
31782;SDS011;18351;47.560;9.708;2023-05-25T05:51:01;17.60;;;8.93;;
31782;SDS011;18351;47.560;9.708;2023-05-25T05:53:30;15.63;;;8.20;;
31782;SDS011;18351;47.560;9.708;2023-05-25T05:55:56;12.98;;;8.05;;
31782;SDS011;18351;47.560;9.708;2023-05-25T05:58:27;13.05;;;8.43;;
31782;SDS011;18351;47.560;9.708;2023-05-25T06:00:53;11.30;;;8.30;;
31782;SDS011;18351;47.560;9.708;2023-05-25T06:03:20;13.35;;;7.85;;
31782;SDS011;18351;47.560;9.708;2023-05-25T06:05:48;12.52;;;7.20;;
31782;SDS011;18351;47.560;9.708;2023-05-25T06:08:14;12.68;;;7.53;;
31782;SDS011;18351;47.560;9.708;2023-05-25T06:10:40;12.05;;;7.43;;
31782;SDS011;18351;47.560;9.708;2023-05-25T06:13:06;13.00;;;7.03;;
31782;SDS011;18351;47.560;9.708;2023-05-25T06:15:31;11.05;;;6.57;;
31782;SDS011;18351;47.560;9.708;2023-05-25T06:17:57;9.63;;;6.65;;
31782;SDS011;18351;47.560;9.708;2023-05-25T06:20:23;10.35;;;6.32;;
31782;SDS011;18351;47.560;9.708;2023-05-25T06:22:49;11.13;;;6.43;;
31782;SDS011;18351;47.560;9.708;2023-05-25T06:25:14;10.10;;;7.57;;
31782;SDS011;18351;47.560;9.708;2023-05-25T06:27:40;12.50;;;8.30;;
31782;SDS011;18351;47.560;9.708;2023-05-25T06:30:06;12.80;;;7.35;;
31782;SDS011;18351;47.560;9.708;2023-05-25T06:32:32;11.95;;;8.80;;
31782;SDS011;18351;47.560;9.708;2023-05-25T06:34:59;12.15;;;7.93;;
31782;SDS011;18351;47.560;9.708;2023-05-25T06:37:25;13.07;;;8.13;;
31782;SDS011;18351;47.560;9.708;2023-05-25T06:39:51;12.57;;;9.07;;
31782;SDS011;18351;47.560;9.708;2023-05-25T06:42:17;14.07;;;9.30;;
31782;SDS011;18351;47.560;9.708;2023-05-25T06:44:42;14.38;;;9.13;;
31782;SDS011;18351;47.560;9.708;2023-05-25T06:47:08;14.18;;;9.20;;
31782;SDS011;18351;47.560;9.708;2023-05-25T06:49:33;15.45;;;9.95;;
31782;SDS011;18351;47.560;9.708;2023-05-25T06:51:59;14.93;;;9.80;;
31782;SDS011;18351;47.560;9.708;2023-05-25T06:54:24;18.55;;;9.93;;
31782;SDS011;18351;47.560;9.708;2023-05-25T06:56:50;16.73;;;10.05;;
31782;SDS011;18351;47.560;9.708;2023-05-25T06:59:16;16.27;;;10.57;;
31782;SDS011;18351;47.560;9.708;2023-05-25T07:01:42;17.45;;;10.77;;
31782;SDS011;18351;47.560;9.708;2023-05-25T07:04:10;15.45;;;10.27;;
31782;SDS011;18351;47.560;9.708;2023-05-25T07:06:35;17.95;;;10.63;;
31782;SDS011;18351;47.560;9.708;2023-05-25T07:09:01;15.85;;;10.25;;
31782;SDS011;18351;47.560;9.708;2023-05-25T07:11:26;16.67;;;10.88;;
31782;SDS011;18351;47.560;9.708;2023-05-25T07:13:52;17.85;;;11.45;;
31782;SDS011;18351;47.560;9.708;2023-05-25T07:16:17;14.65;;;10.90;;
31782;SDS011;18351;47.560;9.708;2023-05-25T07:18:43;17.23;;;11.45;;
31782;SDS011;18351;47.560;9.708;2023-05-25T07:21:09;16.60;;;10.35;;
31782;SDS011;18351;47.560;9.708;2023-05-25T07:23:35;17.10;;;11.10;;
31782;SDS011;18351;47.560;9.708;2023-05-25T07:26:01;17.83;;;11.63;;
31782;SDS011;18351;47.560;9.708;2023-05-25T07:28:28;18.77;;;11.40;;
31782;SDS011;18351;47.560;9.708;2023-05-25T07:30:53;17.77;;;11.05;;
31782;SDS011;18351;47.560;9.708;2023-05-25T07:33:19;15.80;;;10.68;;
31782;SDS011;18351;47.560;9.708;2023-05-25T07:35:44;14.68;;;11.38;;
31782;SDS011;18351;47.560;9.708;2023-05-25T07:38:10;19.33;;;10.70;;
31782;SDS011;18351;47.560;9.708;2023-05-25T07:40:35;16.05;;;10.35;;
31782;SDS011;18351;47.560;9.708;2023-05-25T07:43:01;19.30;;;10.93;;
31782;SDS011;18351;47.560;9.708;2023-05-25T07:45:27;16.27;;;10.13;;
31782;SDS011;18351;47.560;9.708;2023-05-25T07:47:52;15.65;;;10.10;;
31782;SDS011;18351;47.560;9.708;2023-05-25T07:50:18;14.05;;;9.55;;
31782;SDS011;18351;47.560;9.708;2023-05-25T07:52:44;12.57;;;8.38;;
31782;SDS011;18351;47.560;9.708;2023-05-25T07:55:10;13.50;;;8.73;;
31782;SDS011;18351;47.560;9.708;2023-05-25T07:57:35;12.13;;;7.55;;
31782;SDS011;18351;47.560;9.708;2023-05-25T08:00:01;11.88;;;8.70;;
31782;SDS011;18351;47.560;9.708;2023-05-25T08:02:30;11.80;;;7.07;;
31782;SDS011;18351;47.560;9.708;2023-05-25T08:04:55;10.18;;;6.55;;
31782;SDS011;18351;47.560;9.708;2023-05-25T08:07:21;12.65;;;6.10;;
31782;SDS011;18351;47.560;9.708;2023-05-25T08:09:48;11.68;;;7.10;;
31782;SDS011;18351;47.560;9.708;2023-05-25T08:12:14;13.93;;;7.95;;
31782;SDS011;18351;47.560;9.708;2023-05-25T08:14:40;8.88;;;6.50;;
31782;SDS011;18351;47.560;9.708;2023-05-25T08:17:05;10.30;;;6.80;;
31782;SDS011;18351;47.560;9.708;2023-05-25T08:19:31;12.52;;;6.65;;
31782;SDS011;18351;47.560;9.708;2023-05-25T08:21:57;7.00;;;5.57;;
31782;SDS011;18351;47.560;9.708;2023-05-25T08:24:23;10.80;;;6.97;;
31782;SDS011;18351;47.560;9.708;2023-05-25T08:26:48;12.00;;;8.10;;
31782;SDS011;18351;47.560;9.708;2023-05-25T08:29:14;9.05;;;6.88;;
31782;SDS011;18351;47.560;9.708;2023-05-25T08:31:40;16.63;;;8.77;;
31782;SDS011;18351;47.560;9.708;2023-05-25T08:34:13;13.65;;;8.90;;
31782;SDS011;18351;47.560;9.708;2023-05-25T08:36:39;10.65;;;7.63;;
31782;SDS011;18351;47.560;9.708;2023-05-25T08:39:04;14.60;;;8.00;;
31782;SDS011;18351;47.560;9.708;2023-05-25T08:41:32;11.20;;;8.63;;
31782;SDS011;18351;47.560;9.708;2023-05-25T08:44:00;13.88;;;8.80;;
31782;SDS011;18351;47.560;9.708;2023-05-25T08:46:30;10.18;;;7.50;;
31782;SDS011;18351;47.560;9.708;2023-05-25T08:49:12;9.85;;;7.13;;
31782;SDS011;18351;47.560;9.708;2023-05-25T08:51:40;10.87;;;8.30;;
31782;SDS011;18351;47.560;9.708;2023-05-25T08:54:12;13.20;;;9.25;;
31782;SDS011;18351;47.560;9.708;2023-05-25T08:57:00;10.32;;;7.32;;
31782;SDS011;18351;47.560;9.708;2023-05-25T08:59:36;12.55;;;8.05;;
31782;SDS011;18351;47.560;9.708;2023-05-25T09:02:22;9.77;;;7.03;;
31782;SDS011;18351;47.560;9.708;2023-05-25T09:04:52;15.35;;;8.93;;
31782;SDS011;18351;47.560;9.708;2023-05-25T09:07:19;9.68;;;7.72;;
31782;SDS011;18351;47.560;9.708;2023-05-25T09:09:45;8.80;;;6.30;;
31782;SDS011;18351;47.560;9.708;2023-05-25T09:12:11;8.55;;;6.63;;
31782;SDS011;18351;47.560;9.708;2023-05-25T09:14:39;11.95;;;7.28;;
31782;SDS011;18351;47.560;9.708;2023-05-25T09:17:10;8.00;;;5.82;;
31782;SDS011;18351;47.560;9.708;2023-05-25T09:19:39;9.85;;;6.85;;
31782;SDS011;18351;47.560;9.708;2023-05-25T09:22:05;12.50;;;7.47;;
31782;SDS011;18351;47.560;9.708;2023-05-25T09:24:30;9.68;;;7.03;;
31782;SDS011;18351;47.560;9.708;2023-05-25T09:26:57;10.95;;;6.68;;
31782;SDS011;18351;47.560;9.708;2023-05-25T09:29:23;8.23;;;6.43;;
31782;SDS011;18351;47.560;9.708;2023-05-25T09:31:49;9.52;;;6.60;;
31782;SDS011;18351;47.560;9.708;2023-05-25T09:34:15;11.80;;;6.72;;
31782;SDS011;18351;47.560;9.708;2023-05-25T09:36:41;17.60;;;7.88;;
31782;SDS011;18351;47.560;9.708;2023-05-25T09:39:08;9.38;;;7.03;;
31782;SDS011;18351;47.560;9.708;2023-05-25T09:41:34;9.02;;;7.32;;
31782;SDS011;18351;47.560;9.708;2023-05-25T09:44:00;10.50;;;7.38;;
31782;SDS011;18351;47.560;9.708;2023-05-25T09:46:28;9.30;;;7.15;;
31782;SDS011;18351;47.560;9.708;2023-05-25T09:48:53;10.27;;;7.03;;
31782;SDS011;18351;47.560;9.708;2023-05-25T09:51:20;9.52;;;6.70;;
31782;SDS011;18351;47.560;9.708;2023-05-25T09:53:46;9.70;;;6.75;;
31782;SDS011;18351;47.560;9.708;2023-05-25T09:56:11;9.32;;;6.68;;
31782;SDS011;18351;47.560;9.708;2023-05-25T09:58:37;8.20;;;5.90;;
31782;SDS011;18351;47.560;9.708;2023-05-25T10:01:03;10.38;;;6.25;;
31782;SDS011;18351;47.560;9.708;2023-05-25T10:03:29;9.02;;;6.20;;
31782;SDS011;18351;47.560;9.708;2023-05-25T10:05:55;11.00;;;5.93;;
31782;SDS011;18351;47.560;9.708;2023-05-25T10:08:21;8.73;;;6.50;;
31782;SDS011;18351;47.560;9.708;2023-05-25T10:10:49;8.80;;;6.47;;
31782;SDS011;18351;47.560;9.708;2023-05-25T10:13:15;9.45;;;6.65;;
31782;SDS011;18351;47.560;9.708;2023-05-25T10:15:49;12.02;;;7.55;;
31782;SDS011;18351;47.560;9.708;2023-05-25T10:18:16;8.65;;;6.60;;
31782;SDS011;18351;47.560;9.708;2023-05-25T10:20:46;8.73;;;6.97;;
31782;SDS011;18351;47.560;9.708;2023-05-25T10:23:16;9.32;;;7.25;;
31782;SDS011;18351;47.560;9.708;2023-05-25T10:25:48;9.55;;;5.82;;
31782;SDS011;18351;47.560;9.708;2023-05-25T10:28:30;9.52;;;6.68;;
31782;SDS011;18351;47.560;9.708;2023-05-25T10:31:03;10.13;;;7.05;;
31782;SDS011;18351;47.560;9.708;2023-05-25T10:33:31;9.57;;;6.90;;
31782;SDS011;18351;47.560;9.708;2023-05-25T10:35:57;6.85;;;6.10;;
31782;SDS011;18351;47.560;9.708;2023-05-25T10:38:24;7.70;;;6.50;;
31782;SDS011;18351;47.560;9.708;2023-05-25T10:40:55;7.93;;;6.20;;
31782;SDS011;18351;47.560;9.708;2023-05-25T10:43:22;8.10;;;5.93;;
31782;SDS011;18351;47.560;9.708;2023-05-25T10:45:48;8.80;;;7.07;;
31782;SDS011;18351;47.560;9.708;2023-05-25T10:48:16;10.20;;;7.47;;
31782;SDS011;18351;47.560;9.708;2023-05-25T10:50:42;10.23;;;6.50;;
31782;SDS011;18351;47.560;9.708;2023-05-25T10:53:14;10.63;;;7.43;;
31782;SDS011;18351;47.560;9.708;2023-05-25T10:58:18;12.30;;;7.70;;
31782;SDS011;18351;47.560;9.708;2023-05-25T11:01:02;15.55;;;7.50;;
31782;SDS011;18351;47.560;9.708;2023-05-25T11:06:13;8.80;;;7.70;;
31782;SDS011;18351;47.560;9.708;2023-05-25T11:08:59;10.23;;;7.78;;
31782;SDS011;18351;47.560;9.708;2023-05-25T11:14:19;9.95;;;7.53;;
31782;SDS011;18351;47.560;9.708;2023-05-25T11:17:04;9.98;;;7.72;;
31782;SDS011;18351;47.560;9.708;2023-05-25T11:19:50;13.57;;;8.25;;
31782;SDS011;18351;47.560;9.708;2023-05-25T11:22:30;14.30;;;8.80;;
31782;SDS011;18351;47.560;9.708;2023-05-25T11:24:57;11.07;;;8.45;;
31782;SDS011;18351;47.560;9.708;2023-05-25T11:27:28;11.45;;;8.85;;
31782;SDS011;18351;47.560;9.708;2023-05-25T11:29:54;17.13;;;9.55;;
31782;SDS011;18351;47.560;9.708;2023-05-25T11:32:21;9.63;;;7.57;;
31782;SDS011;18351;47.560;9.708;2023-05-25T11:34:50;9.18;;;7.43;;
31782;SDS011;18351;47.560;9.708;2023-05-25T11:37:17;12.43;;;8.05;;
31782;SDS011;18351;47.560;9.708;2023-05-25T11:39:48;14.30;;;8.80;;
31782;SDS011;18351;47.560;9.708;2023-05-25T11:42:15;15.30;;;10.05;;
31782;SDS011;18351;47.560;9.708;2023-05-25T11:44:43;12.60;;;9.10;;
31782;SDS011;18351;47.560;9.708;2023-05-25T11:47:09;11.85;;;8.88;;
31782;SDS011;18351;47.560;9.708;2023-05-25T11:49:42;14.60;;;10.75;;
31782;SDS011;18351;47.560;9.708;2023-05-25T11:52:14;17.48;;;10.85;;
31782;SDS011;18351;47.560;9.708;2023-05-25T11:54:41;11.60;;;9.05;;
31782;SDS011;18351;47.560;9.708;2023-05-25T11:57:17;13.90;;;9.93;;
31782;SDS011;18351;47.560;9.708;2023-05-25T11:59:51;16.23;;;11.52;;
31782;SDS011;18351;47.560;9.708;2023-05-25T12:02:19;15.75;;;11.48;;
31782;SDS011;18351;47.560;9.708;2023-05-25T12:07:43;15.52;;;11.57;;
31782;SDS011;18351;47.560;9.708;2023-05-25T12:10:10;14.00;;;10.07;;
31782;SDS011;18351;47.560;9.708;2023-05-25T12:12:42;13.43;;;10.07;;
31782;SDS011;18351;47.560;9.708;2023-05-25T12:15:10;14.70;;;11.25;;
31782;SDS011;18351;47.560;9.708;2023-05-25T12:17:40;15.82;;;11.60;;
31782;SDS011;18351;47.560;9.708;2023-05-25T12:20:08;13.77;;;10.60;;
31782;SDS011;18351;47.560;9.708;2023-05-25T12:22:35;16.92;;;10.48;;
31782;SDS011;18351;47.560;9.708;2023-05-25T12:25:01;14.30;;;11.48;;
31782;SDS011;18351;47.560;9.708;2023-05-25T12:27:28;17.40;;;11.88;;
31782;SDS011;18351;47.560;9.708;2023-05-25T12:29:54;15.50;;;10.80;;
31782;SDS011;18351;47.560;9.708;2023-05-25T12:32:23;13.25;;;10.77;;
31782;SDS011;18351;47.560;9.708;2023-05-25T12:34:48;17.17;;;9.93;;
31782;SDS011;18351;47.560;9.708;2023-05-25T12:37:17;13.45;;;10.07;;
31782;SDS011;18351;47.560;9.708;2023-05-25T12:39:46;13.85;;;10.48;;
31782;SDS011;18351;47.560;9.708;2023-05-25T12:42:13;19.98;;;10.50;;
31782;SDS011;18351;47.560;9.708;2023-05-25T12:44:39;13.68;;;9.82;;
31782;SDS011;18351;47.560;9.708;2023-05-25T12:49:35;12.80;;;9.32;;
31782;SDS011;18351;47.560;9.708;2023-05-25T12:52:02;16.92;;;11.38;;
31782;SDS011;18351;47.560;9.708;2023-05-25T12:54:39;12.00;;;9.73;;
31782;SDS011;18351;47.560;9.708;2023-05-25T12:57:12;13.73;;;10.77;;
31782;SDS011;18351;47.560;9.708;2023-05-25T12:59:40;12.18;;;9.02;;
31782;SDS011;18351;47.560;9.708;2023-05-25T13:02:07;15.63;;;11.02;;
31782;SDS011;18351;47.560;9.708;2023-05-25T13:04:33;14.15;;;9.00;;
31782;SDS011;18351;47.560;9.708;2023-05-25T13:07:01;13.35;;;10.80;;
31782;SDS011;18351;47.560;9.708;2023-05-25T13:09:27;14.68;;;10.13;;
31782;SDS011;18351;47.560;9.708;2023-05-25T13:11:53;17.73;;;10.23;;
31782;SDS011;18351;47.560;9.708;2023-05-25T13:14:20;12.20;;;9.30;;
31782;SDS011;18351;47.560;9.708;2023-05-25T13:16:49;18.70;;;11.18;;
31782;SDS011;18351;47.560;9.708;2023-05-25T13:19:16;12.25;;;10.20;;
31782;SDS011;18351;47.560;9.708;2023-05-25T13:21:42;13.30;;;10.27;;
31782;SDS011;18351;47.560;9.708;2023-05-25T13:24:08;14.70;;;11.40;;
31782;SDS011;18351;47.560;9.708;2023-05-25T13:26:34;15.82;;;11.10;;
31782;SDS011;18351;47.560;9.708;2023-05-25T13:28:59;11.93;;;10.25;;
31782;SDS011;18351;47.560;9.708;2023-05-25T13:31:25;14.40;;;10.68;;
31782;SDS011;18351;47.560;9.708;2023-05-25T13:33:51;16.55;;;10.85;;
31782;SDS011;18351;47.560;9.708;2023-05-25T13:36:16;13.93;;;11.20;;
31782;SDS011;18351;47.560;9.708;2023-05-25T13:38:42;17.02;;;10.50;;
31782;SDS011;18351;47.560;9.708;2023-05-25T13:41:07;15.65;;;13.18;;
31782;SDS011;18351;47.560;9.708;2023-05-25T13:43:36;17.58;;;13.25;;
31782;SDS011;18351;47.560;9.708;2023-05-25T13:46:02;14.73;;;11.80;;
31782;SDS011;18351;47.560;9.708;2023-05-25T13:48:28;18.30;;;14.82;;
31782;SDS011;18351;47.560;9.708;2023-05-25T13:50:53;18.98;;;14.27;;
31782;SDS011;18351;47.560;9.708;2023-05-25T13:53:19;19.90;;;14.05;;
31782;SDS011;18351;47.560;9.708;2023-05-25T13:55:45;19.67;;;15.23;;
31782;SDS011;18351;47.560;9.708;2023-05-25T13:58:10;20.83;;;15.20;;
31782;SDS011;18351;47.560;9.708;2023-05-25T14:00:36;20.67;;;14.80;;
31782;SDS011;18351;47.560;9.708;2023-05-25T14:03:01;19.35;;;14.82;;
31782;SDS011;18351;47.560;9.708;2023-05-25T14:05:30;20.10;;;15.77;;
31782;SDS011;18351;47.560;9.708;2023-05-25T14:07:56;23.05;;;16.67;;
31782;SDS011;18351;47.560;9.708;2023-05-25T14:10:24;20.20;;;16.05;;
31782;SDS011;18351;47.560;9.708;2023-05-25T14:12:50;24.05;;;16.45;;
31782;SDS011;18351;47.560;9.708;2023-05-25T14:15:16;21.27;;;15.77;;
31782;SDS011;18351;47.560;9.708;2023-05-25T14:17:44;17.05;;;13.88;;
31782;SDS011;18351;47.560;9.708;2023-05-25T14:20:13;17.55;;;14.57;;
31782;SDS011;18351;47.560;9.708;2023-05-25T14:22:44;21.10;;;14.98;;
31782;SDS011;18351;47.560;9.708;2023-05-25T14:25:10;19.48;;;14.77;;
31782;SDS011;18351;47.560;9.708;2023-05-25T14:27:36;23.83;;;16.25;;
31782;SDS011;18351;47.560;9.708;2023-05-25T14:30:02;29.13;;;17.02;;
31782;SDS011;18351;47.560;9.708;2023-05-25T14:32:27;20.98;;;16.70;;
31782;SDS011;18351;47.560;9.708;2023-05-25T14:34:53;22.65;;;16.13;;
31782;SDS011;18351;47.560;9.708;2023-05-25T14:37:18;22.80;;;17.85;;
31782;SDS011;18351;47.560;9.708;2023-05-25T14:39:44;19.88;;;16.40;;
31782;SDS011;18351;47.560;9.708;2023-05-25T14:42:09;23.33;;;17.23;;
31782;SDS011;18351;47.560;9.708;2023-05-25T14:44:35;23.33;;;16.88;;
31782;SDS011;18351;47.560;9.708;2023-05-25T14:47:00;21.55;;;16.52;;
31782;SDS011;18351;47.560;9.708;2023-05-25T14:49:26;21.58;;;15.15;;